Terminal Aerodrome Forecast
Issued by NWS Wilmington, OH

Current Version | Previous Version | Graphics & Text | Print | Product List | Glossary On
Versions: 1 2 3 4 5 6 7 8 9 10 11 12 13 14 15 16 17
000
FTUS41 KILN 230137 AAA
TAFCMH
TAF AMD
KCMH 230137Z 2302/2324 21012KT P6SM -SHRA BKN025 OVC035
     FM230600 20012KT P6SM VCSH OVC020
      TEMPO 2306/2310 BKN008 OVC015
     FM231200 22014G20KT 5SM SHRA BR OVC015
      TEMPO 2314/2318 3SM +SHRA OVC010
     FM232200 23014KT P6SM VCSH SCT025 OVC100=

USA.gov is the U.S. government's official web portal to all federal, state and local government web resources and services.